Time;durP1;ratioP1;P1;durP2;ratioP2;P2;SDS_P1;SDS_P2;PMS_P1;PMS_P2;Temp;Humidity;BMP_temperature;BMP_pressure;BME280_temperature;BME280_humidity;BME280_pressure;Samples;Min_cycle;Max_cycle;Signal;HPM_P1;HPM_P2
2022/03/30 00:01:29;;;;;;;31.45;13.65;;;13.50;95.30;;;;;;5075488;28;20020;-75
2022/03/30 00:03:55;;;;;;;31.85;13.93;;;13.50;97.10;;;;;;5057623;28;20025;-74
2022/03/30 00:06:21;;;;;;;30.15;14.80;;;13.40;98.00;;;;;;5056941;28;20025;-74
2022/03/30 00:08:46;;;;;;;30.85;14.90;;;13.40;99.60;;;;;;5057738;28;20032;-74
2022/03/30 00:11:12;;;;;;;31.23;14.55;;;13.20;99.90;;;;;;5056816;28;20508;-74
2022/03/30 00:13:39;;;;;;;29.85;14.82;;;13.20;99.60;;;;;;5057086;28;20510;-74
2022/03/30 00:16:06;;;;;;;31.60;14.90;;;13.20;99.90;;;;;;5056285;28;20065;-75
2022/03/30 00:18:33;;;;;;;30.40;14.88;;;13.20;99.90;;;;;;5074916;28;20032;-74
2022/03/30 00:20:59;;;;;;;28.23;14.73;;;13.20;99.90;;;;;;5075003;28;20102;-74
2022/03/30 00:23:25;;;;;;;30.38;14.93;;;13.20;99.90;;;;;;5074393;28;20042;-74
2022/03/30 00:25:51;;;;;;;34.15;14.98;;;13.20;99.90;;;;;;5073697;28;20059;-75
2022/03/30 00:28:16;;;;;;;33.67;16.15;;;13.30;99.90;;;;;;5074900;28;20024;-76
2022/03/30 00:30:43;;;;;;;33.15;15.52;;;13.20;99.90;;;;;;5073667;28;20496;-74
2022/03/30 00:33:09;;;;;;;35.33;16.55;;;13.10;99.90;;;;;;5074518;28;20041;-75
2022/03/30 00:35:35;;;;;;;39.65;16.30;;;13.10;99.90;;;;;;5075118;28;20433;-75
2022/03/30 00:38:01;;;;;;;32.85;15.50;;;13.20;99.30;;;;;;5073587;28;20028;-75
2022/03/30 00:40:27;;;;;;;31.67;15.60;;;13.20;99.90;;;;;;5056710;28;20078;-74
2022/03/30 00:42:53;;;;;;;43.30;17.88;;;13.20;99.90;;;;;;5056952;28;20044;-77
2022/03/30 00:45:21;;;;;;;40.70;17.20;;;13.20;99.90;;;;;;5056331;28;20112;-78
2022/03/30 00:47:47;;;;;;;38.97;17.85;;;13.10;99.90;;;;;;5056689;28;20035;-78
2022/03/30 00:50:16;;;;;;;35.97;16.70;;;13.10;99.90;;;;;;5056225;28;20120;-76
2022/03/30 00:52:43;;;;;;;38.95;17.05;;;13.10;99.90;;;;;;5056745;28;20021;-76
2022/03/30 00:55:10;;;;;;;29.20;14.20;;;13.10;99.90;;;;;;5056013;28;20024;-77
2022/03/30 00:57:36;;;;;;;31.65;14.30;;;13.10;99.90;;;;;;5074144;28;20103;-76
2022/03/30 01:00:05;;;;;;;30.65;13.88;;;13.10;99.90;;;;;;5056442;28;20027;-76
2022/03/30 01:02:31;;;;;;;29.67;12.90;;;13.10;99.90;;;;;;5056414;28;20396;-77
2022/03/30 01:04:57;;;;;;;33.08;13.30;;;13.10;99.90;;;;;;5073894;28;20028;-73
2022/03/30 01:07:22;;;;;;;31.67;12.88;;;13.10;99.90;;;;;;5073472;28;20032;-74
2022/03/30 01:09:48;;;;;;;30.08;12.45;;;13.20;99.90;;;;;;5074318;28;20051;-74
2022/03/30 01:12:15;;;;;;;25.58;11.32;;;13.20;99.90;;;;;;5073398;28;20077;-74
2022/03/30 01:14:41;;;;;;;31.45;13.20;;;13.20;99.90;;;;;;5073804;28;20024;-74
2022/03/30 01:17:07;;;;;;;30.23;12.40;;;13.20;99.90;;;;;;5072966;28;20016;-75
2022/03/30 01:19:34;;;;;;;28.50;12.98;;;13.20;99.90;;;;;;5073469;28;20056;-74
2022/03/30 01:22:00;;;;;;;27.08;11.93;;;13.20;99.90;;;;;;5056038;28;20028;-74
2022/03/30 01:24:26;;;;;;;24.30;11.77;;;13.20;99.90;;;;;;5055282;28;20035;-74
2022/03/30 01:26:53;;;;;;;32.45;13.75;;;13.30;99.90;;;;;;5073705;28;20027;-74
2022/03/30 01:34:49;;;;;;;29.60;13.13;;;13.20;99.90;;;;;;5073644;28;20595;-74
2022/03/30 01:37:15;;;;;;;32.78;12.85;;;13.10;99.90;;;;;;5055044;28;20130;-74
2022/03/30 01:39:42;;;;;;;34.17;13.70;;;13.00;99.90;;;;;;5055426;28;20060;-73
2022/03/30 01:42:08;;;;;;;32.05;13.30;;;13.00;99.90;;;;;;5071733;28;20028;-77
2022/03/30 01:44:34;;;;;;;30.60;13.00;;;12.90;99.90;;;;;;5055424;28;20020;-76
2022/03/30 01:47:00;;;;;;;30.08;13.40;;;12.90;99.90;;;;;;5072150;28;20368;-76
2022/03/30 01:49:26;;;;;;;28.42;13.13;;;12.90;99.90;;;;;;5072689;28;20422;-76
2022/03/30 01:51:54;;;;;;;32.00;14.45;;;12.80;99.90;;;;;;5055560;28;20020;-76
2022/03/30 01:54:25;;;;;;;30.80;13.75;;;12.70;99.90;;;;;;5054838;28;20442;-76
2022/03/30 01:56:52;;;;;;;36.25;15.15;;;12.70;99.90;;;;;;5055519;28;20025;-76
2022/03/30 01:59:19;;;;;;;30.67;13.77;;;12.70;99.90;;;;;;5054790;28;20024;-77
2022/03/30 02:01:45;;;;;;;28.58;12.88;;;12.70;99.90;;;;;;5055074;28;20028;-76
2022/03/30 02:04:11;;;;;;;32.65;14.32;;;12.70;99.90;;;;;;5054187;28;20020;-78
2022/03/30 02:06:38;;;;;;;28.30;14.57;;;12.70;99.90;;;;;;5054811;28;20024;-77
2022/03/30 02:09:05;;;;;;;29.45;14.20;;;12.50;99.90;;;;;;5055024;28;20032;-77
2022/03/30 02:11:31;;;;;;;30.15;14.40;;;12.50;99.90;;;;;;5054363;28;20016;-77
2022/03/30 02:13:57;;;;;;;27.92;13.90;;;12.40;99.90;;;;;;5072978;28;20114;-77
2022/03/30 02:16:23;;;;;;;31.52;14.32;;;12.40;99.90;;;;;;5072158;28;20024;-78
2022/03/30 02:18:49;;;;;;;32.10;14.43;;;12.30;99.90;;;;;;5055219;28;20025;-77
2022/03/30 02:21:15;;;;;;;30.63;14.30;;;12.30;99.90;;;;;;5054392;28;20047;-78
2022/03/30 02:23:42;;;;;;;33.53;15.95;;;12.30;99.90;;;;;;5054956;28;20073;-77
2022/03/30 02:26:08;;;;;;;34.55;16.23;;;12.20;99.90;;;;;;5072964;28;20118;-77
2022/03/30 02:28:34;;;;;;;34.25;15.88;;;12.20;99.90;;;;;;5054379;28;20055;-77
2022/03/30 02:31:00;;;;;;;31.85;15.70;;;12.20;99.90;;;;;;5072734;28;20093;-76
2022/03/30 02:33:26;;;;;;;32.97;14.93;;;12.10;99.90;;;;;;5072160;28;20086;-77
2022/03/30 02:35:53;;;;;;;29.98;15.27;;;12.10;99.90;;;;;;5072825;28;20074;-77
2022/03/30 02:38:19;;;;;;;37.33;15.38;;;12.10;99.90;;;;;;5072175;28;20474;-77
2022/03/30 02:40:45;;;;;;;29.75;15.15;;;12.10;99.90;;;;;;5072753;28;20020;-77
2022/03/30 02:43:10;;;;;;;31.08;14.93;;;12.00;99.90;;;;;;5054006;28;20012;-80
2022/03/30 02:45:36;;;;;;;35.38;16.00;;;12.00;99.90;;;;;;5054817;28;20024;-77
2022/03/30 02:48:17;;;;;;;32.28;15.43;;;12.00;99.90;;;;;;5054714;28;20024;-78
2022/03/30 02:50:45;;;;;;;29.77;15.30;;;12.00;99.90;;;;;;5054366;28;20024;-76
2022/03/30 02:53:11;;;;;;;32.35;16.20;;;12.00;99.90;;;;;;5054153;28;20024;-79
2022/03/30 02:55:37;;;;;;;33.13;15.60;;;12.00;99.90;;;;;;5072403;28;20048;-76
2022/03/30 02:58:04;;;;;;;31.10;15.45;;;12.10;99.90;;;;;;5054095;28;20485;-76
2022/03/30 03:00:30;;;;;;;31.77;15.50;;;12.10;99.90;;;;;;5054155;28;20073;-76
2022/03/30 03:02:56;;;;;;;27.50;14.93;;;12.20;99.90;;;;;;5076111;28;20147;-76
2022/03/30 03:05:21;;;;;;;29.75;14.85;;;12.10;99.90;;;;;;5075577;28;20474;-76
2022/03/30 03:07:47;;;;;;;28.05;14.00;;;12.10;99.90;;;;;;5076333;28;20025;-76
2022/03/30 03:10:13;;;;;;;32.22;14.95;;;12.10;99.90;;;;;;5057612;28;20028;-76
2022/03/30 03:12:39;;;;;;;28.92;14.50;;;12.10;99.90;;;;;;5058243;28;20159;-76
2022/03/30 03:15:05;;;;;;;30.58;14.40;;;12.10;99.90;;;;;;5058149;28;20016;-76
2022/03/30 03:17:30;;;;;;;31.33;14.68;;;12.10;99.90;;;;;;5057597;28;20021;-76
2022/03/30 03:19:56;;;;;;;27.60;14.32;;;12.10;99.90;;;;;;5075656;28;20056;-76
2022/03/30 03:22:21;;;;;;;31.05;14.45;;;12.10;99.90;;;;;;5057574;28;20518;-77
2022/03/30 03:24:47;;;;;;;34.85;16.17;;;12.20;99.90;;;;;;5058160;28;20051;-76
2022/03/30 03:27:12;;;;;;;34.25;15.85;;;12.10;99.90;;;;;;5057671;28;20461;-79
2022/03/30 03:29:38;;;;;;;37.83;15.93;;;12.10;99.90;;;;;;5058048;28;20050;-76
2022/03/30 03:32:05;;;;;;;34.05;15.52;;;12.10;99.90;;;;;;5057949;28;20438;-76
2022/03/30 03:34:31;;;;;;;30.50;15.40;;;12.20;99.90;;;;;;5075228;28;20059;-76
2022/03/30 03:36:56;;;;;;;37.25;17.83;;;12.20;99.90;;;;;;5075467;28;20055;-76
2022/03/30 03:39:22;;;;;;;33.95;15.93;;;12.10;99.90;;;;;;5057186;28;20081;-77
2022/03/30 03:41:47;;;;;;;32.00;14.90;;;12.00;99.90;;;;;;5057406;28;20078;-76
2022/03/30 03:44:13;;;;;;;36.97;16.90;;;12.10;99.90;;;;;;5075989;28;20025;-76
2022/03/30 03:46:39;;;;;;;36.30;16.52;;;12.10;99.90;;;;;;5057617;28;20020;-75
2022/03/30 03:49:04;;;;;;;38.67;16.60;;;12.10;99.90;;;;;;5057168;28;20051;-76
2022/03/30 03:51:30;;;;;;;34.72;16.10;;;12.00;99.90;;;;;;5075009;28;20027;-76
2022/03/30 03:53:56;;;;;;;35.38;16.13;;;12.00;99.90;;;;;;5057487;28;20056;-75
2022/03/30 03:56:21;;;;;;;33.00;15.52;;;12.00;99.90;;;;;;5057171;28;20104;-76
2022/03/30 03:58:51;;;;;;;35.10;16.27;;;12.00;99.90;;;;;;5057421;28;20027;-76
2022/03/30 04:01:17;;;;;;;33.72;15.57;;;12.00;99.90;;;;;;5056725;28;20020;-77
2022/03/30 04:03:43;;;;;;;34.80;15.50;;;12.00;99.90;;;;;;5057222;28;20082;-76
2022/03/30 04:06:09;;;;;;;31.50;15.57;;;12.10;99.90;;;;;;5075674;28;20021;-76
2022/03/30 04:08:35;;;;;;;38.38;16.10;;;12.00;99.90;;;;;;5074339;28;20396;-76
2022/03/30 04:11:01;;;;;;;33.00;15.60;;;12.00;99.90;;;;;;5075082;28;20020;-76
2022/03/30 04:13:27;;;;;;;33.53;15.88;;;12.00;99.90;;;;;;5055177;28;20020;-76
2022/03/30 04:15:53;;;;;;;37.22;16.92;;;12.00;99.90;;;;;;5057005;28;20066;-75
2022/03/30 04:18:19;;;;;;;34.53;16.88;;;12.00;99.90;;;;;;5056681;28;20055;-76
2022/03/30 04:20:44;;;;;;;33.83;16.67;;;11.90;99.90;;;;;;5053272;28;20071;-75
2022/03/30 04:23:10;;;;;;;36.05;16.75;;;11.90;99.90;;;;;;5054860;28;20025;-76
2022/03/30 04:25:37;;;;;;;38.83;16.75;;;11.90;99.90;;;;;;5053425;28;20031;-76
2022/03/30 04:28:03;;;;;;;36.45;16.90;;;11.90;99.90;;;;;;5053628;28;20032;-76
2022/03/30 04:30:30;;;;;;;33.22;16.63;;;11.90;99.90;;;;;;5053152;28;20027;-76
2022/03/30 04:32:55;;;;;;;32.75;16.50;;;11.80;99.90;;;;;;5053078;28;20028;-76
2022/03/30 04:35:27;;;;;;;40.92;16.60;;;11.80;99.90;;;;;;5054274;28;20025;-76
2022/03/30 04:37:56;;;;;;;;;;;11.90;99.90;;;;;;5055015;28;20063;-77
2022/03/30 04:40:24;;;;;;;33.08;16.17;;;11.80;99.90;;;;;;5052935;28;19932;-76
2022/03/30 04:42:50;;;;;;;37.38;16.40;;;11.80;99.90;;;;;;5053272;28;20029;-76
2022/03/30 04:45:17;;;;;;;33.03;16.40;;;11.70;99.90;;;;;;5053295;28;20052;-76
2022/03/30 04:47:42;;;;;;;31.48;15.70;;;11.70;99.90;;;;;;5053231;28;20060;-76
2022/03/30 04:50:09;;;;;;;35.28;15.82;;;11.70;99.90;;;;;;5053217;28;20045;-76
2022/03/30 04:52:36;;;;;;;34.63;15.48;;;11.70;99.90;;;;;;5052618;28;20024;-76
2022/03/30 04:55:02;;;;;;;34.15;14.15;;;11.50;99.90;;;;;;5054325;28;20025;-76
2022/03/30 04:57:28;;;;;;;28.60;13.57;;;11.60;99.90;;;;;;5052306;28;20029;-76
2022/03/30 04:59:54;;;;;;;31.27;14.02;;;11.50;99.90;;;;;;5052907;28;20025;-76
2022/03/30 05:02:19;;;;;;;32.40;14.18;;;11.50;99.90;;;;;;5052355;28;20159;-77
2022/03/30 05:04:45;;;;;;;25.27;13.32;;;11.50;99.90;;;;;;5052796;28;20369;-76
2022/03/30 05:07:10;;;;;;;28.50;14.30;;;11.50;99.90;;;;;;5052789;28;20025;-76
2022/03/30 05:09:39;;;;;;;30.70;14.05;;;11.40;99.90;;;;;;5053558;28;20357;-76
2022/03/30 05:12:05;;;;;;;34.38;14.45;;;11.40;99.90;;;;;;5052436;28;20036;-77
2022/03/30 05:14:32;;;;;;;31.30;13.90;;;11.40;99.90;;;;;;5053570;28;20017;-76
2022/03/30 05:16:59;;;;;;;32.05;14.55;;;11.40;99.90;;;;;;5052223;28;20021;-76
2022/03/30 05:19:24;;;;;;;32.55;15.48;;;11.30;99.90;;;;;;5053146;28;20028;-77
2022/03/30 05:21:50;;;;;;;32.28;14.75;;;11.30;99.90;;;;;;5053272;28;20013;-77
2022/03/30 05:24:16;;;;;;;31.67;14.13;;;11.20;99.90;;;;;;5055550;28;20429;-77
2022/03/30 05:26:41;;;;;;;37.53;14.43;;;11.30;99.90;;;;;;5056291;28;20030;-80
2022/03/30 05:29:07;;;;;;;32.75;14.55;;;11.20;99.90;;;;;;5056160;28;20021;-79
2022/03/30 05:31:33;;;;;;;34.45;14.13;;;11.20;99.90;;;;;;5053728;28;20028;-79
2022/03/30 05:33:59;;;;;;;29.45;14.82;;;11.20;99.90;;;;;;5055663;28;20445;-79
2022/03/30 05:36:24;;;;;;;31.77;15.07;;;11.10;99.90;;;;;;5054912;28;20048;-79
2022/03/30 05:38:51;;;;;;;30.98;14.43;;;11.10;99.90;;;;;;5071024;28;20377;-78
2022/03/30 05:41:17;;;;;;;33.88;14.80;;;11.20;99.90;;;;;;5081452;28;20107;-76
2022/03/30 05:43:43;;;;;;;29.50;14.40;;;11.20;99.90;;;;;;5062816;28;20033;-77
2022/03/30 05:46:09;;;;;;;37.08;15.70;;;11.10;99.90;;;;;;5069804;28;20039;-77
2022/03/30 05:48:35;;;;;;;30.85;15.10;;;11.20;99.90;;;;;;5057691;28;20047;-77
2022/03/30 05:51:01;;;;;;;27.55;14.27;;;11.20;99.90;;;;;;5069262;28;20119;-77
2022/03/30 05:53:27;;;;;;;33.33;14.25;;;11.20;99.90;;;;;;5063042;28;20562;-78
2022/03/30 05:55:52;;;;;;;33.67;14.35;;;11.20;99.90;;;;;;5061906;28;20025;-77
2022/03/30 05:58:18;;;;;;;31.48;13.52;;;11.20;99.90;;;;;;5071154;28;20077;-78
2022/03/30 06:00:44;;;;;;;36.47;13.60;;;11.30;99.90;;;;;;5070551;28;20029;-78
2022/03/30 06:03:12;;;;;;;37.17;13.63;;;11.30;99.90;;;;;;5061811;28;20016;-78
2022/03/30 06:05:38;;;;;;;32.65;13.35;;;11.20;99.90;;;;;;5062744;28;20365;-78
2022/03/30 06:08:06;;;;;;;31.27;13.88;;;11.20;99.90;;;;;;5069383;28;20046;-79
2022/03/30 06:10:32;;;;;;;30.30;12.93;;;11.20;99.90;;;;;;5058233;28;20028;-79
2022/03/30 06:12:58;;;;;;;30.55;12.35;;;11.20;99.90;;;;;;5069520;28;20472;-77
2022/03/30 06:15:24;;;;;;;32.13;13.52;;;11.30;99.90;;;;;;5063069;28;20024;-79
2022/03/30 06:17:51;;;;;;;29.85;12.77;;;11.30;99.90;;;;;;5062547;28;20032;-80
2022/03/30 06:20:17;;;;;;;25.63;12.32;;;11.30;99.90;;;;;;5055041;28;20049;-79
2022/03/30 06:22:43;;;;;;;34.85;14.88;;;11.30;99.90;;;;;;5063917;28;20073;-77
2022/03/30 06:25:10;;;;;;;31.17;12.82;;;11.30;99.90;;;;;;5067261;28;20103;-75
2022/03/30 06:27:41;;;;;;;27.63;13.02;;;11.20;99.90;;;;;;5082303;28;20486;-77
2022/03/30 06:30:09;;;;;;;27.52;12.40;;;11.20;99.90;;;;;;5060005;28;20028;-77
2022/03/30 06:32:35;;;;;;;25.38;12.38;;;11.30;99.90;;;;;;5070554;28;20052;-77
2022/03/30 06:35:05;;;;;;;28.65;12.95;;;11.30;99.90;;;;;;5077644;28;20400;-77
2022/03/30 06:37:31;;;;;;;28.95;13.27;;;11.30;99.90;;;;;;5089142;28;20024;-77
2022/03/30 06:39:56;;;;;;;29.98;12.82;;;11.20;99.90;;;;;;5070437;28;20039;-77
2022/03/30 06:42:22;;;;;;;28.67;12.43;;;11.20;99.90;;;;;;5078541;28;20016;-78
2022/03/30 06:44:48;;;;;;;23.45;12.68;;;11.30;99.90;;;;;;5071055;28;20020;-78
2022/03/30 06:47:14;;;;;;;28.17;13.02;;;11.30;99.90;;;;;;5063206;28;20016;-75
2022/03/30 06:49:40;;;;;;;30.05;12.30;;;11.40;99.90;;;;;;5063094;28;20021;-75
2022/03/30 06:52:08;;;;;;;29.60;12.07;;;11.40;99.90;;;;;;5059132;28;20025;-75
2022/03/30 06:54:34;;;;;;;32.28;12.82;;;11.50;99.90;;;;;;5052026;28;20032;-76
2022/03/30 06:57:00;;;;;;;28.13;12.43;;;11.50;99.90;;;;;;5071742;28;20077;-75
2022/03/30 06:59:26;;;;;;;28.90;12.27;;;11.40;99.90;;;;;;5070737;28;20031;-75
2022/03/30 07:01:54;;;;;;;22.48;11.57;;;11.50;99.90;;;;;;5057013;28;20017;-75
2022/03/30 07:04:20;;;;;;;28.67;12.35;;;11.50;99.90;;;;;;5076727;28;20024;-76
2022/03/30 07:12:14;;;;;;;28.38;12.10;;;11.30;99.90;;;;;;5076361;28;20142;-74
2022/03/30 07:14:40;;;;;;;36.03;13.65;;;11.40;99.90;;;;;;5073787;28;20111;-76
2022/03/30 07:17:06;;;;;;;29.73;13.18;;;11.50;99.90;;;;;;5068264;28;20027;-78
2022/03/30 07:19:31;;;;;;;30.42;14.20;;;11.60;99.90;;;;;;5058099;28;20071;-77
2022/03/30 07:21:57;;;;;;;34.60;14.82;;;11.50;99.90;;;;;;5056160;28;20457;-80
2022/03/30 07:24:23;;;;;;;33.65;15.20;;;11.40;99.90;;;;;;5071831;28;20047;-78
2022/03/30 07:26:49;;;;;;;32.55;15.57;;;11.50;99.90;;;;;;5054203;28;20032;-77
2022/03/30 07:29:15;;;;;;;36.72;15.63;;;11.50;99.90;;;;;;5072376;28;20157;-76
2022/03/30 07:31:40;;;;;;;37.92;16.63;;;11.50;99.90;;;;;;5053837;28;20465;-77
2022/03/30 07:34:06;;;;;;;41.13;16.58;;;11.50;99.90;;;;;;5054291;28;20020;-77
2022/03/30 07:36:32;;;;;;;39.55;16.95;;;11.60;99.90;;;;;;5053648;28;20038;-77
2022/03/30 07:38:57;;;;;;;34.15;16.25;;;11.50;99.90;;;;;;5054328;28;20033;-77
2022/03/30 07:41:23;;;;;;;37.08;16.83;;;11.60;99.90;;;;;;5054423;28;20029;-77
2022/03/30 07:43:49;;;;;;;40.88;17.52;;;11.60;99.90;;;;;;5072065;28;20082;-76
2022/03/30 07:46:15;;;;;;;37.00;17.38;;;11.50;99.90;;;;;;5072286;28;20052;-77
2022/03/30 07:48:41;;;;;;;34.60;16.73;;;11.50;99.90;;;;;;5057089;28;20457;-77
2022/03/30 07:51:07;;;;;;;39.10;16.45;;;11.50;99.90;;;;;;5057811;28;20021;-77
2022/03/30 07:53:32;;;;;;;32.20;15.10;;;11.50;99.90;;;;;;5057340;28;20051;-76
2022/03/30 07:55:58;;;;;;;29.60;12.75;;;11.50;99.90;;;;;;5057916;28;20453;-77
2022/03/30 07:58:25;;;;;;;24.48;12.23;;;11.40;99.90;;;;;;5057598;28;20024;-77
2022/03/30 08:00:51;;;;;;;25.00;12.55;;;11.30;99.90;;;;;;5057634;28;20453;-77
2022/03/30 08:03:17;;;;;;;27.58;12.38;;;11.20;99.90;;;;;;5057666;28;20017;-76
2022/03/30 08:05:43;;;;;;;30.75;13.77;;;11.20;99.90;;;;;;5075174;28;20060;-77
2022/03/30 08:08:09;;;;;;;30.58;13.77;;;11.20;99.90;;;;;;5074829;28;20024;-77
2022/03/30 08:10:37;;;;;;;28.40;13.90;;;11.20;99.90;;;;;;5074403;28;20024;-78
2022/03/30 08:13:03;;;;;;;29.13;13.75;;;11.10;99.90;;;;;;5075121;28;20086;-78
2022/03/30 08:15:30;;;;;;;26.27;14.40;;;11.00;99.90;;;;;;5056786;28;20507;-78
2022/03/30 08:17:56;;;;;;;29.17;14.00;;;11.00;99.90;;;;;;5056841;28;20024;-77
2022/03/30 08:23:07;;;;;;;30.65;14.82;;;11.00;99.90;;;;;;5055241;28;20036;-76
2022/03/30 08:25:34;;;;;;;28.42;14.63;;;11.00;99.90;;;;;;5036918;28;20025;-77
2022/03/30 08:28:00;;;;;;;35.85;16.10;;;10.90;99.90;;;;;;5055067;28;20103;-77
2022/03/30 08:30:27;;;;;;;32.03;15.70;;;10.80;99.90;;;;;;5037225;28;20108;-76
2022/03/30 08:32:53;;;;;;;33.10;15.52;;;10.80;99.90;;;;;;5054882;28;20013;-76
2022/03/30 08:35:19;;;;;;;29.98;14.65;;;10.80;99.90;;;;;;5037130;28;20473;-76
2022/03/30 08:37:45;;;;;;;36.58;15.75;;;10.70;99.90;;;;;;5072640;28;20021;-76
2022/03/30 08:40:11;;;;;;;33.60;15.95;;;10.70;99.90;;;;;;5056826;28;20033;-76
2022/03/30 08:42:38;;;;;;;31.63;15.70;;;10.70;99.90;;;;;;5056422;28;20023;-76
2022/03/30 08:45:06;;;;;;;37.30;15.57;;;10.70;99.90;;;;;;5056661;28;20044;-76
2022/03/30 08:47:33;;;;;;;34.85;16.23;;;10.60;99.90;;;;;;5073211;28;20366;-76
2022/03/30 08:49:59;;;;;;;37.65;16.90;;;10.60;99.90;;;;;;5074243;28;20028;-76
2022/03/30 08:52:24;;;;;;;40.15;17.02;;;10.60;99.90;;;;;;5056947;28;20090;-76
2022/03/30 08:54:51;;;;;;;38.25;17.85;;;10.60;99.90;;;;;;5056300;28;20403;-76
2022/03/30 08:57:19;;;;;;;40.50;17.73;;;10.50;99.90;;;;;;5056592;28;20028;-76
2022/03/30 09:00:13;;;;;;;38.15;17.13;;;10.60;99.90;;;;;;5054874;28;20040;-76
2022/03/30 09:02:44;;;;;;;33.72;16.60;;;10.50;99.90;;;;;;5056266;28;20409;-76
2022/03/30 09:05:16;;;;;;;44.45;18.48;;;10.60;99.90;;;;;;5056387;28;20028;-76
2022/03/30 09:07:43;;;;;;;39.10;18.42;;;10.50;99.90;;;;;;5055947;28;20539;-75
2022/03/30 09:10:18;;;;;;;44.85;18.58;;;10.50;99.90;;;;;;5052940;28;20113;-76
2022/03/30 09:12:47;;;;;;;37.90;17.58;;;10.40;99.90;;;;;;5051261;28;20044;-77
2022/03/30 09:15:13;;;;;;;41.67;19.30;;;10.30;99.90;;;;;;5053897;28;20016;-76
2022/03/30 09:17:39;;;;;;;42.72;18.25;;;10.30;99.90;;;;;;5052482;28;20024;-77
2022/03/30 09:20:11;;;;;;;46.97;19.58;;;10.30;99.90;;;;;;5064207;28;20051;-77
2022/03/30 09:22:41;;;;;;;;;;;10.30;99.90;;;;;;5075484;28;20484;-76
2022/03/30 09:25:08;;;;;;;38.40;16.77;;;10.40;99.90;;;;;;5086096;28;20263;-76
2022/03/30 09:27:34;;;;;;;39.00;18.30;;;10.30;99.90;;;;;;5059518;28;20028;-77
2022/03/30 09:30:01;;;;;;;41.10;18.42;;;10.40;99.90;;;;;;5064643;28;20085;-76
2022/03/30 09:32:29;;;;;;;46.10;19.25;;;10.50;99.90;;;;;;5076486;28;20056;-77
2022/03/30 09:34:55;;;;;;;39.47;18.65;;;10.40;99.90;;;;;;5086913;28;20127;-76
2022/03/30 09:37:21;;;;;;;43.20;19.33;;;10.40;99.90;;;;;;5057785;28;20024;-77
2022/03/30 09:39:48;;;;;;;47.20;19.92;;;10.30;99.90;;;;;;5081297;28;20098;-76
2022/03/30 09:42:14;;;;;;;42.90;19.23;;;10.30;99.90;;;;;;5064785;28;20039;-76
2022/03/30 09:44:58;;;;;;;42.75;19.45;;;10.30;99.90;;;;;;5074134;28;20032;-76
2022/03/30 09:47:36;;;;;;;42.15;19.15;;;10.30;99.90;;;;;;5061511;28;20052;-76
2022/03/30 09:50:07;;;;;;;44.90;20.15;;;10.40;99.90;;;;;;5061608;28;20029;-77
2022/03/30 09:52:33;;;;;;;43.28;19.00;;;10.40;99.90;;;;;;5085124;28;20457;-77
2022/03/30 09:55:05;;;;;;;49.13;20.58;;;10.30;99.90;;;;;;5055960;28;20024;-77
2022/03/30 09:57:41;;;;;;;42.78;19.42;;;10.30;99.90;;;;;;5065844;28;20024;-76
2022/03/30 10:00:18;;;;;;;41.63;19.63;;;10.30;99.90;;;;;;5063767;28;20036;-77
2022/03/30 10:02:47;;;;;;;42.63;20.05;;;10.30;99.90;;;;;;5055392;28;20036;-77
2022/03/30 10:05:16;;;;;;;45.13;20.10;;;10.30;99.90;;;;;;5070050;28;20024;-77
2022/03/30 10:07:42;;;;;;;41.95;19.92;;;10.20;99.90;;;;;;5077823;28;20472;-77
2022/03/30 10:10:10;;;;;;;43.53;19.38;;;10.10;99.90;;;;;;5078592;28;20025;-77
2022/03/30 10:12:37;;;;;;;43.70;20.73;;;10.10;99.90;;;;;;5067376;28;20024;-76
2022/03/30 10:15:03;;;;;;;44.72;20.75;;;10.10;99.90;;;;;;5055515;28;20029;-76
2022/03/30 10:17:29;;;;;;;40.92;19.50;;;10.20;99.90;;;;;;5054522;28;20127;-77
2022/03/30 10:19:58;;;;;;;40.67;20.15;;;10.20;99.90;;;;;;5052389;28;20179;-77
2022/03/30 10:23:00;;;;;;;40.35;19.58;;;10.20;99.90;;;;;;5052932;28;20043;-78
2022/03/30 10:25:55;;;;;;;41.60;20.27;;;10.30;99.90;;;;;;5003567;28;20037;-79
2022/03/30 10:28:39;;;;;;;38.42;18.85;;;10.30;99.90;;;;;;5052702;28;20020;-77
2022/03/30 10:31:04;;;;;;;43.47;19.55;;;10.40;99.90;;;;;;5070509;28;20064;-77
2022/03/30 10:33:36;;;;;;;46.63;21.25;;;10.40;99.90;;;;;;5069905;28;20043;-76
2022/03/30 10:36:28;;;;;;;40.70;18.98;;;10.30;99.90;;;;;;5051991;28;20528;-82
2022/03/30 10:39:15;;;;;;;43.25;20.77;;;10.20;99.90;;;;;;5052481;28;20110;-83
2022/03/30 10:42:04;;;;;;;40.28;19.27;;;10.20;99.90;;;;;;5069906;28;20078;-78
2022/03/30 10:44:51;;;;;;;44.33;19.60;;;10.20;99.90;;;;;;5066774;28;20027;-79
2022/03/30 10:47:25;;;;;;;40.88;19.10;;;10.20;99.90;;;;;;5053945;28;20031;-80
2022/03/30 10:49:54;;;;;;;40.63;18.60;;;10.20;99.90;;;;;;5067784;28;20419;-82
2022/03/30 10:52:38;;;;;;;39.42;19.83;;;10.20;99.90;;;;;;5054362;28;20016;-82
2022/03/30 10:55:13;;;;;;;40.60;19.67;;;10.20;99.90;;;;;;5054474;28;20116;-81
2022/03/30 10:58:04;;;;;;;42.17;19.40;;;10.20;99.90;;;;;;5059088;28;20525;-80
2022/03/30 11:00:36;;;;;;;44.85;19.88;;;10.20;99.90;;;;;;5053899;28;20024;-80
2022/03/30 11:03:09;;;;;;;41.30;19.63;;;10.30;99.90;;;;;;5053681;28;20058;-78
2022/03/30 11:05:36;;;;;;;42.72;20.13;;;10.30;99.90;;;;;;5071240;28;20085;-81
2022/03/30 11:08:34;;;;;;;39.75;18.67;;;10.20;99.90;;;;;;5068191;28;20043;-84
2022/03/30 11:11:26;;;;;;;39.72;19.00;;;10.20;99.90;;;;;;5057278;28;20119;-79
2022/03/30 11:14:23;;;;;;;435.55;179.07;;;10.30;99.90;;;;;;5054742;28;20132;-79
2022/03/30 11:16:54;;;;;;;183.10;82.75;;;10.30;99.90;;;;;;5053057;28;20024;-82
2022/03/30 11:19:29;;;;;;;66.97;32.42;;;10.30;99.90;;;;;;5072026;28;20769;-86
2022/03/30 11:22:12;;;;;;;51.20;23.55;;;10.30;99.90;;;;;;5060211;28;20043;-81
2022/03/30 11:24:45;;;;;;;41.95;21.25;;;10.20;99.90;;;;;;5091673;28;20077;-79
2022/03/30 11:27:11;;;;;;;42.05;20.73;;;10.30;99.90;;;;;;5088246;28;20016;-80
2022/03/30 11:29:40;;;;;;;38.55;19.45;;;10.30;99.90;;;;;;5063133;28;20433;-80
2022/03/30 11:32:25;;;;;;;37.60;18.30;;;10.30;99.90;;;;;;5085854;28;20062;-79
2022/03/30 11:35:12;;;;;;;38.35;17.75;;;10.30;99.90;;;;;;5063521;28;20035;-85
2022/03/30 11:38:01;;;;;;;37.38;18.50;;;10.30;99.90;;;;;;5038578;28;20029;-81
2022/03/30 11:40:27;;;;;;;39.70;18.00;;;10.40;99.90;;;;;;5073611;28;20108;-80
2022/03/30 11:42:58;;;;;;;37.85;19.30;;;10.40;99.90;;;;;;5060540;28;20048;-80
2022/03/30 11:45:26;;;;;;;36.10;17.70;;;10.50;99.90;;;;;;5063754;28;20024;-79
2022/03/30 11:47:58;;;;;;;36.95;18.23;;;10.60;99.90;;;;;;5069928;28;20020;-82
2022/03/30 11:50:38;;;;;;;;;;;10.60;99.90;;;;;;5075243;28;20029;-82
2022/03/30 11:53:12;;;;;;;37.35;17.55;;;10.60;99.90;;;;;;5058856;28;19912;-82
2022/03/30 11:55:50;;;;;;;36.15;17.25;;;10.70;99.90;;;;;;5057073;28;20027;-81
2022/03/30 11:58:32;;;;;;;33.42;16.70;;;10.70;99.90;;;;;;5068939;28;20107;-82
2022/03/30 12:01:00;;;;;;;35.88;17.33;;;10.90;99.90;;;;;;5073004;28;20048;-83
2022/03/30 12:03:26;;;;;;;34.00;17.77;;;10.80;99.90;;;;;;5062322;28;20077;-83
2022/03/30 12:05:55;;;;;;;49.53;20.75;;;10.90;99.90;;;;;;5088115;28;20017;-83
2022/03/30 12:08:21;;;;;;;46.72;20.17;;;10.90;99.90;;;;;;5069571;28;20043;-81
2022/03/30 12:10:48;;;;;;;35.35;17.85;;;10.90;99.90;;;;;;5079862;28;20074;-82
2022/03/30 12:13:22;;;;;;;35.00;17.00;;;11.00;99.90;;;;;;5086901;28;20016;-82
2022/03/30 12:15:59;;;;;;;35.00;17.70;;;11.10;99.90;;;;;;5087935;28;20473;-82
2022/03/30 12:18:24;;;;;;;33.10;16.17;;;11.00;99.90;;;;;;5078380;28;20136;-79
2022/03/30 12:20:50;;;;;;;31.38;15.98;;;11.10;99.90;;;;;;5060858;28;20076;-79
2022/03/30 12:23:16;;;;;;;30.00;15.88;;;11.10;99.90;;;;;;5091913;28;20031;-79
2022/03/30 12:25:42;;;;;;;31.15;15.65;;;11.20;99.90;;;;;;5063654;28;20091;-80
2022/03/30 12:28:07;;;;;;;34.13;16.92;;;11.40;99.90;;;;;;5073978;28;20111;-80
2022/03/30 12:30:37;;;;;;;34.60;17.83;;;11.50;99.90;;;;;;5082001;28;20052;-80
2022/03/30 12:33:03;;;;;;;33.42;16.98;;;11.50;99.90;;;;;;5072577;28;20369;-79
2022/03/30 12:35:35;;;;;;;31.63;16.48;;;11.60;99.90;;;;;;5078588;28;20024;-79
2022/03/30 12:38:11;;;;;;;31.45;16.55;;;11.70;99.90;;;;;;5076183;28;20365;-78
2022/03/30 12:40:40;;;;;;;31.15;16.58;;;11.80;99.90;;;;;;5076296;28;20368;-79
2022/03/30 12:43:06;;;;;;;31.98;16.70;;;11.90;99.90;;;;;;5060054;28;20403;-78
2022/03/30 12:45:32;;;;;;;33.58;16.83;;;12.00;99.90;;;;;;5073114;28;20341;-80
2022/03/30 12:48:01;;;;;;;34.50;17.08;;;12.00;99.90;;;;;;5076160;28;20469;-80